createdAt,value
2023-05-11T00:00:22.565Z,250.60
2023-05-11T00:01:22.539Z,280.50
2023-05-11T00:02:22.549Z,608.70
2023-05-11T00:03:22.676Z,615.20
2023-05-11T00:04:22.548Z,608.00
2023-05-11T00:05:22.510Z,599.30
2023-05-11T00:06:22.474Z,234.90
2023-05-11T00:07:22.482Z,587.20
2023-05-11T00:08:22.451Z,600.10
2023-05-11T00:09:22.505Z,597.70
2023-05-11T00:10:22.434Z,583.10
2023-05-11T00:11:22.417Z,634.50
2023-05-11T00:12:22.395Z,746.80
2023-05-11T00:13:22.401Z,656.40
2023-05-11T00:14:22.423Z,698.20
2023-05-11T00:15:22.365Z,722.70
2023-05-11T00:16:22.410Z,666.20
2023-05-11T00:17:22.352Z,701.90
2023-05-11T00:18:22.393Z,745.00
2023-05-11T00:19:22.369Z,720.40
2023-05-11T00:20:22.309Z,685.30
2023-05-11T00:21:22.294Z,665.80
2023-05-11T00:22:22.269Z,651.30
2023-05-11T00:23:22.313Z,676.80
2023-05-11T00:24:22.254Z,655.70
2023-05-11T00:25:22.259Z,643.20
2023-05-11T00:26:22.252Z,634.30
2023-05-11T00:27:22.228Z,631.10
2023-05-11T00:28:22.236Z,646.60
2023-05-11T00:29:22.199Z,655.10
2023-05-11T00:30:22.195Z,631.90
2023-05-11T00:31:22.239Z,648.70
2023-05-11T00:32:22.291Z,642.70
2023-05-11T00:33:22.189Z,625.70
2023-05-11T00:34:22.142Z,632.90
2023-05-11T00:35:22.156Z,670.10
2023-05-11T00:36:22.115Z,671.90
2023-05-11T00:37:22.147Z,670.90
2023-05-11T00:38:22.080Z,630.30
2023-05-11T00:39:22.102Z,603.10
2023-05-11T00:40:22.078Z,610.60
2023-05-11T00:41:22.078Z,591.20
2023-05-11T00:42:22.089Z,659.20
2023-05-11T00:43:22.046Z,694.40
2023-05-11T00:44:22.020Z,694.50
2023-05-11T00:45:22.042Z,698.10
2023-05-11T00:46:22.074Z,681.20
2023-05-11T00:47:22.032Z,649.90
2023-05-11T00:48:21.994Z,621.80
2023-05-11T00:49:21.962Z,678.00
2023-05-11T00:50:21.955Z,590.30
2023-05-11T00:51:21.973Z,189.80
2023-05-11T00:52:21.961Z,615.00
2023-05-11T00:53:21.931Z,611.70
2023-05-11T00:54:21.922Z,611.40
2023-05-11T00:55:21.928Z,614.20
2023-05-11T00:56:21.931Z,616.30
2023-05-11T00:57:21.893Z,679.40
2023-05-11T00:58:21.882Z,682.80
2023-05-11T00:59:21.858Z,681.40
2023-05-11T01:00:21.868Z,671.30
2023-05-11T01:01:21.995Z,659.30
2023-05-11T01:02:21.883Z,654.40
2023-05-11T01:03:21.832Z,665.30
2023-05-11T01:04:21.789Z,665.00
2023-05-11T01:05:21.839Z,647.10
2023-05-11T01:06:21.825Z,654.90
2023-05-11T01:07:21.798Z,654.30
2023-05-11T01:08:21.769Z,651.00
2023-05-11T01:09:21.774Z,649.60
2023-05-11T01:10:21.793Z,653.10
2023-05-11T01:11:21.781Z,644.00
2023-05-11T01:12:21.739Z,632.10
2023-05-11T01:13:21.714Z,630.00
2023-05-11T01:14:21.711Z,629.30
2023-05-11T01:15:21.771Z,640.70
2023-05-11T01:16:21.697Z,651.50
2023-05-11T01:17:21.653Z,655.60
2023-05-11T01:18:21.672Z,665.80
2023-05-11T01:19:21.661Z,550.40
2023-05-11T01:20:21.660Z,213.50
2023-05-11T01:21:21.624Z,672.20
2023-05-11T01:22:21.601Z,683.30
2023-05-11T01:23:21.594Z,693.10
2023-05-11T01:24:21.650Z,672.80
2023-05-11T01:25:21.599Z,689.60
2023-05-11T01:26:21.562Z,704.40
2023-05-11T01:27:21.567Z,660.70
2023-05-11T01:28:21.550Z,668.20
2023-05-11T01:29:21.570Z,657.90
2023-05-11T01:30:21.529Z,638.50
2023-05-11T01:31:21.533Z,639.00
2023-05-11T01:32:21.521Z,634.90
2023-05-11T01:33:21.505Z,645.80
2023-05-11T01:34:21.547Z,625.20
2023-05-11T01:35:21.472Z,621.10
2023-05-11T01:36:21.455Z,620.60
2023-05-11T01:37:21.447Z,611.50
2023-05-11T01:38:21.471Z,619.30
2023-05-11T01:39:21.447Z,626.60
2023-05-11T01:40:21.440Z,627.20
2023-05-11T01:41:21.408Z,656.70
2023-05-11T01:42:21.390Z,644.10
2023-05-11T01:43:21.415Z,650.70
2023-05-11T01:44:21.364Z,572.80
2023-05-11T01:45:21.356Z,238.40
2023-05-11T01:46:21.341Z,624.10
2023-05-11T01:47:21.309Z,588.40
2023-05-11T01:48:21.346Z,558.20
2023-05-11T01:49:21.302Z,570.60
2023-05-11T01:50:21.394Z,532.80
2023-05-11T01:51:21.305Z,521.20
2023-05-11T01:52:21.328Z,506.50
2023-05-11T01:53:21.286Z,473.10
2023-05-11T01:54:21.263Z,470.00
2023-05-11T01:55:21.242Z,260.50
2023-05-11T01:56:21.209Z,422.90
2023-05-11T01:57:21.251Z,574.50
2023-05-11T01:58:21.188Z,519.80
2023-05-11T01:59:21.209Z,490.50
2023-05-11T02:00:21.309Z,480.30
2023-05-11T02:01:21.194Z,474.70
2023-05-11T02:02:21.221Z,470.90
2023-05-11T02:03:21.204Z,464.80
2023-05-11T02:04:21.143Z,452.00
2023-05-11T02:05:21.137Z,466.00
2023-05-11T02:06:21.151Z,454.80
2023-05-11T02:07:21.149Z,474.00
2023-05-11T02:08:21.081Z,468.60
2023-05-11T02:09:21.079Z,478.80
2023-05-11T02:10:21.252Z,487.30
2023-05-11T02:11:21.091Z,480.20
2023-05-11T02:12:21.059Z,477.70
2023-05-11T02:13:21.032Z,472.90
2023-05-11T02:14:21.039Z,476.40
2023-05-11T02:15:20.996Z,475.70
2023-05-11T02:16:21.057Z,475.00
2023-05-11T02:17:20.972Z,473.80
2023-05-11T02:18:21.051Z,469.90
2023-05-11T02:19:20.950Z,474.10
2023-05-11T02:20:21.098Z,484.90
2023-05-11T02:21:20.987Z,488.90
2023-05-11T02:22:20.912Z,490.10
2023-05-11T02:23:20.907Z,494.30
2023-05-11T02:24:20.898Z,496.80
2023-05-11T02:25:20.919Z,487.90
2023-05-11T02:26:20.905Z,500.50
2023-05-11T02:27:20.891Z,504.50
2023-05-11T02:28:20.871Z,496.60
2023-05-11T02:29:20.845Z,506.00
2023-05-11T02:30:21.033Z,508.80
2023-05-11T02:31:20.838Z,510.90
2023-05-11T02:32:20.828Z,517.10
2023-05-11T02:33:20.813Z,511.90
2023-05-11T02:34:20.928Z,515.10
2023-05-11T02:35:20.825Z,516.20
2023-05-11T02:36:20.773Z,516.20
2023-05-11T02:37:20.764Z,514.80
2023-05-11T02:38:20.759Z,530.10
2023-05-11T02:39:20.761Z,513.60
2023-05-11T02:40:20.978Z,504.90
2023-05-11T02:41:20.722Z,514.30
2023-05-11T02:42:20.727Z,521.30
2023-05-11T02:43:20.686Z,298.20
2023-05-11T02:44:20.718Z,624.00
2023-05-11T02:45:20.660Z,579.70
2023-05-11T02:46:20.676Z,528.60
2023-05-11T02:47:20.676Z,520.50
2023-05-11T02:48:20.687Z,467.30
2023-05-11T02:49:20.670Z,421.80
2023-05-11T02:50:20.795Z,606.60
2023-05-11T02:51:20.606Z,628.20
2023-05-11T02:52:20.586Z,560.50
2023-05-11T02:53:20.576Z,506.90
2023-05-11T02:54:20.567Z,496.40
2023-05-11T02:55:20.563Z,517.50
2023-05-11T02:56:20.557Z,515.30
2023-05-11T02:57:20.555Z,503.70
2023-05-11T02:58:20.642Z,504.70
2023-05-11T02:59:20.493Z,497.80
2023-05-11T03:00:21.004Z,499.30
2023-05-11T03:01:20.590Z,493.50
2023-05-11T03:02:20.590Z,505.70
2023-05-11T03:03:20.580Z,511.40
2023-05-11T03:04:20.465Z,520.80
2023-05-11T03:05:20.447Z,518.30
2023-05-11T03:06:20.421Z,516.40
2023-05-11T03:07:20.446Z,514.10
2023-05-11T03:08:20.431Z,525.80
2023-05-11T03:09:20.404Z,520.40
2023-05-11T03:10:20.719Z,512.20
2023-05-11T03:11:20.354Z,513.60
2023-05-11T03:12:20.378Z,508.80
2023-05-11T03:13:20.365Z,515.70
2023-05-11T03:14:20.354Z,503.40
2023-05-11T03:15:20.339Z,512.80
2023-05-11T03:16:21.293Z,534.40
2023-05-11T03:17:20.333Z,532.20
2023-05-11T03:18:20.335Z,529.00
2023-05-11T03:19:20.285Z,522.40
2023-05-11T03:20:20.436Z,524.20
2023-05-11T03:21:20.323Z,534.50
2023-05-11T03:22:20.271Z,563.70
2023-05-11T03:23:20.225Z,516.50
2023-05-11T03:24:20.238Z,458.10
2023-05-11T03:25:20.235Z,619.00
2023-05-11T03:26:20.235Z,579.60
2023-05-11T03:27:20.189Z,543.60
2023-05-11T03:28:20.179Z,524.60
2023-05-11T03:29:20.176Z,527.30
2023-05-11T03:30:20.397Z,533.70
2023-05-11T03:31:20.194Z,542.00
2023-05-11T03:32:20.204Z,539.90
2023-05-11T03:33:20.131Z,535.90
2023-05-11T03:34:20.139Z,535.90
2023-05-11T03:35:20.146Z,548.70
2023-05-11T03:36:20.126Z,568.10
2023-05-11T03:37:20.085Z,670.90
2023-05-11T03:38:20.073Z,554.10
2023-05-11T03:39:20.033Z,645.20
2023-05-11T03:40:20.262Z,403.30
2023-05-11T03:41:20.028Z,666.80
2023-05-11T03:42:20.013Z,654.90
2023-05-11T03:43:20.028Z,602.10
2023-05-11T03:44:20.008Z,397.70
2023-05-11T03:45:20.027Z,567.90
2023-05-11T03:46:20.045Z,609.90
2023-05-11T03:47:19.985Z,593.10
2023-05-11T03:48:19.956Z,542.90
2023-05-11T03:49:19.934Z,641.10
2023-05-11T03:50:19.993Z,437.40
2023-05-11T03:51:19.914Z,582.60
2023-05-11T03:52:19.935Z,615.40
2023-05-11T03:53:19.913Z,586.30
2023-05-11T03:54:19.927Z,616.70
2023-05-11T03:55:19.890Z,483.20
2023-05-11T03:56:19.872Z,437.50
2023-05-11T03:57:19.853Z,609.10
2023-05-11T03:58:19.850Z,553.50
2023-05-11T03:59:19.865Z,587.00
2023-05-11T04:00:20.039Z,352.50
2023-05-11T04:01:19.820Z,638.10
2023-05-11T04:02:19.871Z,664.90
2023-05-11T04:03:19.963Z,471.70
2023-05-11T04:04:19.865Z,357.40
2023-05-11T04:05:19.761Z,674.20
2023-05-11T04:06:19.752Z,592.40
2023-05-11T04:07:19.738Z,258.00
2023-05-11T04:08:19.714Z,431.20
2023-05-11T04:09:19.747Z,669.50
2023-05-11T04:10:19.940Z,442.20
2023-05-11T04:11:19.691Z,674.10
2023-05-11T04:12:19.678Z,457.10
2023-05-11T04:13:19.694Z,428.90
2023-05-11T04:14:19.705Z,644.90
2023-05-11T04:15:19.661Z,657.50
2023-05-11T04:16:19.651Z,505.20
2023-05-11T04:17:19.625Z,282.50
2023-05-11T04:18:19.648Z,310.10
2023-05-11T04:19:19.588Z,650.90
2023-05-11T04:20:19.885Z,199.10
2023-05-11T04:21:19.585Z,524.80
2023-05-11T04:22:19.578Z,621.90
2023-05-11T04:23:19.601Z,342.80
2023-05-11T04:24:19.556Z,696.90
2023-05-11T04:25:19.547Z,520.60
2023-05-11T04:26:19.530Z,458.30
2023-05-11T04:27:19.559Z,568.40
2023-05-11T04:28:19.536Z,216.00
2023-05-11T04:29:19.500Z,358.00
2023-05-11T04:30:19.744Z,770.80
2023-05-11T04:31:19.509Z,316.20
2023-05-11T04:32:19.504Z,271.20
2023-05-11T04:33:19.484Z,802.80
2023-05-11T04:34:19.466Z,564.70
2023-05-11T04:35:19.406Z,468.60
2023-05-11T04:36:19.405Z,185.80
2023-05-11T04:37:19.415Z,734.00
2023-05-11T04:38:19.393Z,445.20
2023-05-11T04:39:19.357Z,200.90
2023-05-11T04:40:19.458Z,411.50
2023-05-11T04:41:19.333Z,513.60
2023-05-11T04:42:19.385Z,491.80
2023-05-11T04:43:19.303Z,365.00
2023-05-11T04:44:19.336Z,246.20
2023-05-11T04:45:19.293Z,477.50
2023-05-11T04:46:19.405Z,368.50
2023-05-11T04:47:19.302Z,131.00
2023-05-11T04:48:20.879Z,218.20
2023-05-11T04:49:19.250Z,389.60
2023-05-11T04:50:19.472Z,211.00
2023-05-11T04:51:19.264Z,397.00
2023-05-11T04:52:19.231Z,122.40
2023-05-11T04:53:19.214Z,160.50
2023-05-11T04:54:19.219Z,409.60
2023-05-11T04:55:19.191Z,128.00
2023-05-11T04:56:19.215Z,349.80
2023-05-11T04:57:19.163Z,127.70
2023-05-11T04:58:19.174Z,353.90
2023-05-11T04:59:19.134Z,318.30
2023-05-11T05:00:19.482Z,322.20
2023-05-11T05:01:19.175Z,349.40
2023-05-11T05:02:19.167Z,339.20
2023-05-11T05:03:19.137Z,333.80
2023-05-11T05:04:19.286Z,358.80
2023-05-11T05:05:19.123Z,322.30
2023-05-11T05:06:19.080Z,325.50
2023-05-11T05:07:19.063Z,322.50
2023-05-11T05:08:19.027Z,316.70
2023-05-11T05:09:19.013Z,353.30
2023-05-11T05:10:19.318Z,286.00
2023-05-11T05:11:19.004Z,179.30
2023-05-11T05:12:19.011Z,58.90
2023-05-11T05:13:18.982Z,85.40
2023-05-11T05:14:19.002Z,77.70
2023-05-11T05:15:18.993Z,137.20
2023-05-11T05:16:18.979Z,112.90
2023-05-11T05:17:18.949Z,105.90
2023-05-11T05:18:18.997Z,67.20
2023-05-11T05:19:18.943Z,100.50
2023-05-11T05:20:19.246Z,72.10
2023-05-11T05:21:18.919Z,75.10
2023-05-11T05:22:18.874Z,90.70
2023-05-11T05:23:18.872Z,112.30
2023-05-11T05:24:18.920Z,119.30
2023-05-11T05:25:18.840Z,413.30
2023-05-11T05:26:18.859Z,224.30
2023-05-11T05:27:18.833Z,220.30
2023-05-11T05:28:18.809Z,212.90
2023-05-11T05:29:18.868Z,192.80
2023-05-11T05:30:18.974Z,144.70
2023-05-11T05:31:18.847Z,153.90
2023-05-11T05:32:18.785Z,150.60
2023-05-11T05:33:18.799Z,211.60
2023-05-11T05:34:18.788Z,50.20
2023-05-11T05:35:18.748Z,47.50
2023-05-11T05:36:18.725Z,42.90
2023-05-11T05:37:18.716Z,48.50
2023-05-11T05:38:18.742Z,51.50
2023-05-11T05:39:18.716Z,54.00
2023-05-11T05:40:18.898Z,59.10
2023-05-11T05:41:18.691Z,74.40
2023-05-11T05:42:18.655Z,84.70
2023-05-11T05:43:18.681Z,78.50
2023-05-11T05:44:18.624Z,68.40
2023-05-11T05:45:18.628Z,109.30
2023-05-11T05:46:18.667Z,60.00
2023-05-11T05:47:18.645Z,80.50
2023-05-11T05:48:18.624Z,121.70
2023-05-11T05:49:18.563Z,55.10
2023-05-11T05:50:18.693Z,40.50
2023-05-11T05:51:18.557Z,34.60
2023-05-11T05:52:18.598Z,40.30
2023-05-11T05:53:18.549Z,42.80
2023-05-11T05:54:18.541Z,43.40
2023-05-11T05:55:18.537Z,45.00
2023-05-11T05:56:18.531Z,55.50
2023-05-11T05:57:18.525Z,52.00
2023-05-11T05:58:18.478Z,59.80
2023-05-11T05:59:18.454Z,56.00
2023-05-11T06:00:18.765Z,54.90
2023-05-11T06:01:18.488Z,49.20
2023-05-11T06:02:18.488Z,48.10
2023-05-11T06:03:18.557Z,43.50
2023-05-11T06:04:18.555Z,42.00
2023-05-11T06:05:18.439Z,39.60
2023-05-11T06:06:18.412Z,42.30
2023-05-11T06:07:18.454Z,40.40
2023-05-11T06:08:18.374Z,42.00
2023-05-11T06:09:18.349Z,41.10
2023-05-11T06:10:18.600Z,32.50
2023-05-11T06:11:18.342Z,33.30
2023-05-11T06:12:18.327Z,29.80
2023-05-11T06:13:18.288Z,26.00
2023-05-11T06:14:18.298Z,21.70
2023-05-11T06:15:18.339Z,22.50
2023-05-11T06:16:18.302Z,22.40
2023-05-11T06:17:18.296Z,24.00
2023-05-11T06:18:18.291Z,23.00
2023-05-11T06:19:18.241Z,26.00
2023-05-11T06:20:18.628Z,24.80
2023-05-11T06:21:18.230Z,24.30
2023-05-11T06:22:18.212Z,24.10
2023-05-11T06:23:18.209Z,27.80
2023-05-11T06:24:18.192Z,32.00
2023-05-11T06:25:18.219Z,31.70
2023-05-11T06:26:18.142Z,41.50
2023-05-11T06:27:18.456Z,45.40
2023-05-11T06:28:18.131Z,44.30
2023-05-11T06:29:18.166Z,41.10
2023-05-11T06:30:18.385Z,37.10
2023-05-11T06:31:18.163Z,34.10
2023-05-11T06:32:18.082Z,32.40
2023-05-11T06:33:18.096Z,33.00
2023-05-11T06:34:18.111Z,28.40
2023-05-11T06:35:18.056Z,25.80
2023-05-11T06:36:18.043Z,25.80
2023-05-11T06:37:18.036Z,27.80
2023-05-11T06:38:18.034Z,27.30
2023-05-11T06:39:18.054Z,32.20
2023-05-11T06:40:18.148Z,30.10
2023-05-11T06:41:17.986Z,30.90
2023-05-11T06:42:18.020Z,39.10
2023-05-11T06:43:18.014Z,32.60
2023-05-11T06:44:17.993Z,53.50
2023-05-11T06:45:18.007Z,57.70
2023-05-11T06:46:18.099Z,50.10
2023-05-11T06:47:17.939Z,49.90
2023-05-11T06:48:17.989Z,50.20
2023-05-11T06:49:17.904Z,45.10
2023-05-11T06:50:20.203Z,39.70
2023-05-11T06:51:17.898Z,41.50
2023-05-11T06:52:17.859Z,35.40
2023-05-11T06:53:17.962Z,49.50
2023-05-11T06:54:17.841Z,41.00
2023-05-11T06:55:17.836Z,49.50
2023-05-11T06:56:17.836Z,42.10
2023-05-11T06:57:17.879Z,46.60
2023-05-11T06:58:17.847Z,52.60
2023-05-11T06:59:17.798Z,35.30
2023-05-11T07:00:18.031Z,21.90
2023-05-11T07:01:17.789Z,22.90
2023-05-11T07:02:17.801Z,30.30
2023-05-11T07:03:17.834Z,35.20
2023-05-11T07:04:17.767Z,51.20
2023-05-11T07:05:17.725Z,23.60
2023-05-11T07:06:17.734Z,46.60
2023-05-11T07:07:17.744Z,27.20
2023-05-11T07:08:17.733Z,26.70
2023-05-11T07:09:17.682Z,24.50
2023-05-11T07:10:17.798Z,23.80
2023-05-11T07:11:17.718Z,23.90
2023-05-11T07:12:17.681Z,25.30
2023-05-11T07:13:17.636Z,25.70
2023-05-11T07:14:17.629Z,24.70
2023-05-11T07:15:17.617Z,24.90
2023-05-11T07:16:17.665Z,27.70
2023-05-11T07:17:17.595Z,23.40
2023-05-11T07:18:17.649Z,23.40
2023-05-11T07:19:17.544Z,22.60
2023-05-11T07:20:17.808Z,23.30
2023-05-11T07:21:17.595Z,23.30
2023-05-11T07:22:17.540Z,24.00
2023-05-11T07:23:17.530Z,23.50
2023-05-11T07:24:17.530Z,26.40
2023-05-11T07:25:17.501Z,37.60
2023-05-11T07:26:17.544Z,42.60
2023-05-11T07:27:17.495Z,37.80
2023-05-11T07:28:17.465Z,45.00
2023-05-11T07:29:17.482Z,46.80
2023-05-11T07:30:18.665Z,53.60
2023-05-11T07:31:17.477Z,60.70
2023-05-11T07:32:17.422Z,53.70
2023-05-11T07:33:17.436Z,45.20
2023-05-11T07:34:17.408Z,63.20
2023-05-11T07:35:17.440Z,99.60
2023-05-11T07:36:17.365Z,53.70
2023-05-11T07:37:17.373Z,46.70
2023-05-11T07:38:17.364Z,48.50
2023-05-11T07:39:17.424Z,71.00
2023-05-11T07:40:17.709Z,80.30
2023-05-11T07:41:17.347Z,75.30
2023-05-11T07:42:17.286Z,74.50
2023-05-11T07:43:17.313Z,56.40
2023-05-11T07:44:17.317Z,40.00
2023-05-11T07:45:18.124Z,35.30
2023-05-11T07:46:17.286Z,39.80
2023-05-11T07:47:17.251Z,58.70
2023-05-11T07:48:17.257Z,52.40
2023-05-11T07:49:22.899Z,44.20
2023-05-11T07:50:18.548Z,55.70
2023-05-11T07:51:17.234Z,36.60
2023-05-11T07:52:17.186Z,30.90
2023-05-11T07:53:17.261Z,27.90
2023-05-11T07:54:18.834Z,26.90
2023-05-11T07:55:17.374Z,22.50
2023-05-11T07:56:17.153Z,21.80
2023-05-11T07:57:17.164Z,21.90
2023-05-11T07:58:17.170Z,21.50
2023-05-11T07:59:17.139Z,22.60
2023-05-11T08:00:17.487Z,21.30
2023-05-11T08:01:17.116Z,22.80
2023-05-11T08:02:17.152Z,26.60
2023-05-11T08:03:17.166Z,23.00
2023-05-11T08:04:17.085Z,23.30
2023-05-11T08:05:17.149Z,25.70
2023-05-11T08:06:17.151Z,23.70
2023-05-11T08:07:17.057Z,27.90
2023-05-11T08:08:17.059Z,36.10
2023-05-11T08:09:17.020Z,29.90
2023-05-11T08:10:17.012Z,29.00
2023-05-11T08:11:17.016Z,31.30
2023-05-11T08:12:17.030Z,29.20
2023-05-11T08:13:17.331Z,27.40
2023-05-11T08:14:16.947Z,25.90
2023-05-11T08:15:17.296Z,31.00
2023-05-11T08:16:17.039Z,27.20
2023-05-11T08:17:16.997Z,27.40
2023-05-11T08:18:16.908Z,28.30
2023-05-11T08:19:16.934Z,26.30
2023-05-11T08:20:16.927Z,22.70
2023-05-11T08:21:16.933Z,26.80
2023-05-11T08:22:16.912Z,28.90
2023-05-11T08:23:16.913Z,34.70
2023-05-11T08:24:16.898Z,29.40
2023-05-11T08:25:17.000Z,28.80
2023-05-11T08:26:16.868Z,25.20
2023-05-11T08:27:16.861Z,25.70
2023-05-11T08:28:16.833Z,24.50
2023-05-11T08:29:16.796Z,23.70
2023-05-11T08:30:16.828Z,25.60
2023-05-11T08:31:16.875Z,23.30
2023-05-11T08:32:16.840Z,22.20
2023-05-11T08:33:35.775Z,23.60
2023-05-11T08:34:20.216Z,25.30
2023-05-11T08:35:17.055Z,25.60
2023-05-11T08:36:16.748Z,25.90
2023-05-11T08:37:16.708Z,25.30
2023-05-11T08:38:16.695Z,23.50
2023-05-11T08:39:28.362Z,23.40
2023-05-11T08:40:17.727Z,24.20
2023-05-11T08:41:16.660Z,26.30
2023-05-11T08:42:16.674Z,22.80
2023-05-11T08:43:16.682Z,24.20
2023-05-11T08:44:16.711Z,30.90
2023-05-11T08:45:17.057Z,30.40
2023-05-11T08:46:16.656Z,30.10
2023-05-11T08:47:23.407Z,33.00
2023-05-11T08:48:17.600Z,25.40
2023-05-11T08:49:16.621Z,24.00
2023-05-11T08:50:16.626Z,32.50
2023-05-11T08:51:16.561Z,31.20
2023-05-11T08:52:16.587Z,32.40
2023-05-11T08:53:16.549Z,31.00
2023-05-11T08:54:16.599Z,32.70
2023-05-11T08:55:16.908Z,32.10
2023-05-11T08:56:16.494Z,32.20
2023-05-11T08:57:16.514Z,31.50
2023-05-11T08:58:16.492Z,37.70
2023-05-11T08:59:16.513Z,41.50
2023-05-11T09:00:16.474Z,55.10
2023-05-11T09:01:16.522Z,61.00
2023-05-11T09:02:16.449Z,62.60
2023-05-11T09:03:16.443Z,45.70
2023-05-11T09:04:16.483Z,62.50
2023-05-11T09:05:16.550Z,57.80
2023-05-11T09:06:16.396Z,82.00
2023-05-11T09:07:16.405Z,108.60
2023-05-11T09:08:16.445Z,99.60
2023-05-11T09:09:16.403Z,99.00
2023-05-11T09:10:16.364Z,74.80
2023-05-11T09:11:16.342Z,72.80
2023-05-11T09:12:16.322Z,84.20
2023-05-11T09:13:16.393Z,59.60
2023-05-11T09:14:16.301Z,65.20
2023-05-11T09:15:16.293Z,79.70
2023-05-11T09:16:35.773Z,79.40
2023-05-11T09:17:17.278Z,117.50
2023-05-11T09:18:16.306Z,125.70
2023-05-11T09:19:16.462Z,109.50
2023-05-11T09:20:16.563Z,101.20
2023-05-11T09:21:16.234Z,94.90
2023-05-11T09:22:16.266Z,88.20
2023-05-11T09:23:16.268Z,104.70
2023-05-11T09:24:16.207Z,94.30
2023-05-11T09:25:16.355Z,106.10
2023-05-11T09:26:16.233Z,135.50
2023-05-11T09:27:21.330Z,114.30
2023-05-11T09:28:24.884Z,125.50
2023-05-11T09:29:17.147Z,127.40
2023-05-11T09:30:22.270Z,130.30
2023-05-11T09:31:17.169Z,127.30
2023-05-11T09:32:16.170Z,130.10
2023-05-11T09:33:16.118Z,105.00
2023-05-11T09:34:16.093Z,83.80
2023-05-11T09:35:16.135Z,86.10
2023-05-11T09:36:16.122Z,76.70
2023-05-11T09:37:16.122Z,74.10
2023-05-11T09:38:16.037Z,67.10
2023-05-11T09:39:35.022Z,80.40
2023-05-11T09:40:27.029Z,87.90
2023-05-11T09:41:17.084Z,110.50
2023-05-11T09:42:16.010Z,71.20
2023-05-11T09:43:16.019Z,59.50
2023-05-11T09:44:16.023Z,65.80
2023-05-11T09:45:16.089Z,63.30
2023-05-11T09:46:16.133Z,56.40
2023-05-11T09:47:16.655Z,57.10
2023-05-11T09:48:16.007Z,54.10
2023-05-11T09:49:16.000Z,52.40
2023-05-11T09:50:15.973Z,51.50
2023-05-11T09:51:15.945Z,69.00
2023-05-11T09:52:15.903Z,101.50
2023-05-11T09:53:15.946Z,110.30
2023-05-11T09:54:15.934Z,76.00
2023-05-11T09:55:16.197Z,61.40
2023-05-11T09:56:15.932Z,54.50
2023-05-11T09:57:15.865Z,72.20
2023-05-11T09:58:15.861Z,74.90
2023-05-11T09:59:15.905Z,84.70
2023-05-11T10:00:15.899Z,41.20
2023-05-11T10:01:15.846Z,32.90
2023-05-11T10:02:18.172Z,29.10
2023-05-11T10:03:15.848Z,31.00
2023-05-11T10:05:16.970Z,33.10
2023-05-11T10:06:16.490Z,45.70
2023-05-11T10:07:15.741Z,55.10
2023-05-11T10:08:15.770Z,32.60
2023-05-11T10:09:15.816Z,25.10
2023-05-11T10:10:15.798Z,25.40
2023-05-11T10:11:15.749Z,29.80
2023-05-11T10:12:15.702Z,30.50
2023-05-11T10:13:15.713Z,35.60
2023-05-11T10:14:15.717Z,156.40
2023-05-11T10:15:15.672Z,132.10
2023-05-11T10:16:15.692Z,73.70
2023-05-11T10:17:15.634Z,66.10
2023-05-11T10:18:16.494Z,63.30
2023-05-11T10:19:15.733Z,50.70
2023-05-11T10:20:15.674Z,60.10
2023-05-11T10:21:15.622Z,61.10
2023-05-11T10:22:15.622Z,49.70
2023-05-11T10:23:15.705Z,55.20
2023-05-11T10:24:16.341Z,82.20
2023-05-11T10:25:15.576Z,53.10
2023-05-11T10:26:15.565Z,65.80
2023-05-11T10:27:15.568Z,58.40
2023-05-11T10:28:15.579Z,65.00
2023-05-11T10:29:15.518Z,106.20
2023-05-11T10:30:15.582Z,114.70
2023-05-11T10:31:15.514Z,193.00
2023-05-11T10:32:15.528Z,224.20
2023-05-11T10:33:15.524Z,150.50
2023-05-11T10:34:15.501Z,130.70
2023-05-11T10:35:15.467Z,129.80
2023-05-11T10:36:19.222Z,120.10
2023-05-11T10:37:15.522Z,112.80
2023-05-11T10:38:15.470Z,101.10
2023-05-11T10:39:15.444Z,80.40
2023-05-11T10:40:15.516Z,82.50
2023-05-11T10:41:15.395Z,132.40
2023-05-11T10:42:15.426Z,149.40
2023-05-11T10:43:15.370Z,90.30
2023-05-11T10:44:15.364Z,132.30
2023-05-11T10:45:15.371Z,117.40
2023-05-11T10:46:15.390Z,138.00
2023-05-11T10:47:15.386Z,135.70
2023-05-11T10:48:15.325Z,227.40
2023-05-11T10:49:15.291Z,264.00
2023-05-11T10:50:15.365Z,231.30
2023-05-11T10:51:15.327Z,149.00
2023-05-11T10:52:15.305Z,71.00
2023-05-11T10:53:15.270Z,195.30
2023-05-11T10:54:15.334Z,86.30
2023-05-11T10:55:15.389Z,212.00
2023-05-11T10:56:15.260Z,77.40
2023-05-11T10:57:15.237Z,116.50
2023-05-11T10:58:15.230Z,149.40
2023-05-11T10:59:15.202Z,89.50
2023-05-11T11:00:15.316Z,67.90
2023-05-11T11:01:15.300Z,32.60
2023-05-11T11:02:15.174Z,31.60
2023-05-11T11:03:15.162Z,27.20
2023-05-11T11:04:15.197Z,33.70
2023-05-11T11:05:15.257Z,28.30
2023-05-11T11:06:15.165Z,28.50
2023-05-11T11:07:15.120Z,26.10
2023-05-11T11:08:15.133Z,26.10
2023-05-11T11:09:15.112Z,26.30
2023-05-11T11:10:15.109Z,24.40
2023-05-11T11:11:15.073Z,25.60
2023-05-11T11:12:15.059Z,25.20
2023-05-11T11:13:15.108Z,35.00
2023-05-11T11:14:15.112Z,30.10
2023-05-11T11:15:15.113Z,30.40
2023-05-11T11:16:16.656Z,30.60
2023-05-11T11:17:15.193Z,30.30
2023-05-11T11:18:15.034Z,28.70
2023-05-11T11:19:15.030Z,28.20
2023-05-11T11:20:15.000Z,27.10
2023-05-11T11:21:14.973Z,30.90
2023-05-11T11:22:14.977Z,30.20
2023-05-11T11:23:14.964Z,29.90
2023-05-11T11:24:14.993Z,29.90
2023-05-11T11:25:14.921Z,32.10
2023-05-11T11:26:14.934Z,31.10
2023-05-11T11:27:14.913Z,33.50
2023-05-11T11:28:14.915Z,29.50
2023-05-11T11:29:14.901Z,27.50
2023-05-11T11:30:14.935Z,24.50
2023-05-11T11:31:14.878Z,22.60
2023-05-11T11:32:14.863Z,22.00
2023-05-11T11:33:14.965Z,20.90
2023-05-11T11:34:14.851Z,20.50
2023-05-11T11:35:14.814Z,24.70
2023-05-11T11:36:14.807Z,23.80
2023-05-11T11:37:14.803Z,26.50
2023-05-11T11:38:14.810Z,25.90
2023-05-11T11:39:14.802Z,28.80
2023-05-11T11:40:15.854Z,27.10
2023-05-11T11:41:14.731Z,25.80
2023-05-11T11:42:14.763Z,26.80
2023-05-11T11:43:14.752Z,25.30
2023-05-11T11:44:14.759Z,26.60
2023-05-11T11:45:14.715Z,33.50
2023-05-11T11:46:14.714Z,26.20
2023-05-11T11:47:14.733Z,30.30
2023-05-11T11:48:14.754Z,24.80
2023-05-11T11:49:14.692Z,27.70
2023-05-11T11:50:14.673Z,31.00
2023-05-11T11:51:14.619Z,23.70
2023-05-11T11:52:14.692Z,25.70
2023-05-11T11:53:14.608Z,24.70
2023-05-11T11:54:14.638Z,26.20
2023-05-11T11:55:14.616Z,22.20
2023-05-11T11:56:14.609Z,26.40
2023-05-11T11:57:14.646Z,28.40
2023-05-11T11:58:14.549Z,25.00
2023-05-11T11:59:14.552Z,25.10
2023-05-11T12:00:14.570Z,27.20
2023-05-11T12:01:14.535Z,28.20
2023-05-11T12:02:14.547Z,25.10
2023-05-11T12:03:14.552Z,28.20
2023-05-11T12:04:14.756Z,27.80
2023-05-11T12:05:14.686Z,28.50
2023-05-11T12:06:14.521Z,28.10
2023-05-11T12:07:14.495Z,29.40
2023-05-11T12:08:14.469Z,30.60
2023-05-11T12:09:14.453Z,31.20
2023-05-11T12:10:14.480Z,33.70
2023-05-11T12:11:14.431Z,33.10
2023-05-11T12:12:14.427Z,32.40
2023-05-11T12:13:14.388Z,33.20
2023-05-11T12:14:14.408Z,32.80
2023-05-11T12:15:14.367Z,34.10
2023-05-11T12:16:14.435Z,30.80
2023-05-11T12:17:14.360Z,29.40
2023-05-11T12:18:14.366Z,28.30
2023-05-11T12:19:14.346Z,26.50
2023-05-11T12:20:14.361Z,25.70
2023-05-11T12:21:14.360Z,23.80
2023-05-11T12:22:14.320Z,22.50
2023-05-11T12:23:14.303Z,24.70
2023-05-11T12:24:14.303Z,27.80
2023-05-11T12:25:14.271Z,23.30
2023-05-11T12:26:14.291Z,24.20
2023-05-11T12:27:14.276Z,29.30
2023-05-11T12:28:14.277Z,29.30
2023-05-11T12:29:14.242Z,28.60
2023-05-11T12:30:14.268Z,30.60
2023-05-11T12:31:14.277Z,32.20
2023-05-11T12:32:14.384Z,32.80
2023-05-11T12:33:14.236Z,33.60
2023-05-11T12:34:14.180Z,31.10
2023-05-11T12:35:14.204Z,49.50
2023-05-11T12:36:14.161Z,91.30
2023-05-11T12:37:14.153Z,110.10
2023-05-11T12:38:14.135Z,147.30
2023-05-11T12:39:14.142Z,133.80
2023-05-11T12:40:14.145Z,148.80
2023-05-11T12:41:14.075Z,154.60